createdAt,value
2016-11-04T00:00:26.234Z,99.68
2016-11-04T00:01:07.627Z,99.99
2016-11-04T00:01:49.314Z,99.82
2016-11-04T00:02:30.886Z,99.82
2016-11-04T00:03:12.694Z,99.99
2016-11-04T00:03:54.379Z,99.99
2016-11-04T00:04:36.045Z,99.99
2016-11-04T00:05:17.755Z,99.82
2016-11-04T00:05:59.460Z,99.54
2016-11-04T00:06:41.115Z,99.99
2016-11-04T00:07:22.638Z,99.3
2016-11-04T00:08:04.374Z,99.82
2016-11-04T00:09:59.207Z,99.82
2016-11-04T00:10:40.681Z,99.96
2016-11-04T00:12:35.391Z,99.82
2016-11-04T00:13:18.045Z,99.77
2016-11-04T00:13:59.730Z,99.99
2016-11-04T00:14:41.447Z,99.99
2016-11-04T00:15:23.153Z,99.99
2016-11-04T00:17:38.472Z,99.77
2016-11-04T00:18:20.274Z,99.87
2016-11-04T00:19:01.970Z,99.77
2016-11-04T00:19:43.732Z,99.96
2016-11-04T00:22:04.348Z,99.99
2016-11-04T00:24:04.249Z,99.99
2016-11-04T00:25:58.984Z,99.99
2016-11-04T00:27:48.431Z,99.99
2016-11-04T00:28:30.008Z,99.99
2016-11-04T00:29:11.728Z,99.99
2016-11-04T00:29:53.413Z,99.99
2016-11-04T00:30:35.177Z,99.99
2016-11-04T00:31:16.954Z,99.99
2016-11-04T00:31:58.881Z,99.99
2016-11-04T00:32:40.429Z,99.99
2016-11-04T00:33:22.058Z,99.99
2016-11-04T00:34:03.739Z,99.99
2016-11-04T00:34:45.508Z,99.99
2016-11-04T00:37:00.741Z,99.99
2016-11-04T00:37:42.413Z,99.99
2016-11-04T00:38:24.161Z,99.96
2016-11-04T00:39:05.854Z,99.96
2016-11-04T00:39:47.446Z,99.99
2016-11-04T00:40:29.145Z,99.99
2016-11-04T00:42:44.480Z,99.99
2016-11-04T00:43:26.211Z,99.99
2016-11-04T00:44:07.860Z,99.99
2016-11-04T00:44:49.542Z,99.99
2016-11-04T00:45:31.191Z,99.99
2016-11-04T00:47:20.539Z,99.99
2016-11-04T00:48:02.241Z,99.99
2016-11-04T00:48:43.987Z,99.99
2016-11-04T00:49:25.653Z,99.99
2016-11-04T00:50:07.162Z,99.99
2016-11-04T00:50:48.836Z,99.99
2016-11-04T00:51:30.490Z,99.99
2016-11-04T00:52:12.144Z,99.96
2016-11-04T00:52:53.913Z,99.96
2016-11-04T00:54:48.780Z,99.99
2016-11-04T00:55:30.338Z,99.99
2016-11-04T00:56:12.129Z,99.96
2016-11-04T00:58:32.762Z,99.99
2016-11-04T00:59:14.212Z,99.99
2016-11-04T01:01:29.571Z,99.99
2016-11-04T01:02:11.070Z,99.99
2016-11-04T01:02:52.895Z,99.99
2016-11-04T01:03:34.329Z,99.96
2016-11-04T01:04:16.099Z,99.99
2016-11-04T01:04:57.369Z,99.99
2016-11-04T01:05:38.896Z,99.99
2016-11-04T01:06:20.170Z,99.99
2016-11-04T01:08:40.822Z,99.99
2016-11-04T01:11:01.484Z,99.99
2016-11-04T01:11:43.134Z,99.96
2016-11-04T01:13:58.289Z,99.99
2016-11-04T01:14:40.014Z,99.99
2016-11-04T01:15:21.677Z,99.99
2016-11-04T01:16:03.363Z,99.99
2016-11-04T01:16:45.025Z,99.99
2016-11-04T01:19:00.430Z,99.99
2016-11-04T01:19:42.127Z,99.99
2016-11-04T01:20:24.209Z,99.99
2016-11-04T01:21:05.896Z,99.99
2016-11-04T01:21:47.529Z,99.99
2016-11-04T01:22:29.249Z,99.99
2016-11-04T01:23:10.875Z,99.99
2016-11-04T01:25:31.471Z,99.96
2016-11-04T01:26:13.071Z,99.99
2016-11-04T01:28:02.355Z,99.99
2016-11-04T01:28:44.052Z,99.96
2016-11-04T01:29:25.726Z,99.99
2016-11-04T01:30:07.479Z,99.99
2016-11-04T01:30:49.246Z,99.99
2016-11-04T01:31:30.897Z,99.99
2016-11-04T01:32:12.664Z,99.99
2016-11-04T01:32:54.253Z,99.99
2016-11-04T01:34:43.646Z,99.99
2016-11-04T01:35:25.339Z,99.99
2016-11-04T01:36:07.026Z,99.99
2016-11-04T01:38:07.003Z,99.99
2016-11-04T01:40:06.901Z,99.99
2016-11-04T01:40:48.635Z,99.68
2016-11-04T01:41:29.994Z,99.99
2016-11-04T01:42:10.925Z,99.99
2016-11-04T01:42:52.496Z,99.99
2016-11-04T01:43:33.488Z,99.68
2016-11-04T01:44:14.131Z,99.99
2016-11-04T01:44:55.499Z,99.99
2016-11-04T01:45:36.579Z,99.99
2016-11-04T01:46:17.673Z,99.63
2016-11-04T01:46:58.630Z,99.99
2016-11-04T01:47:40.318Z,99.99
2016-11-04T01:48:21.939Z,99.99
2016-11-04T01:49:03.497Z,99.99
2016-11-04T01:49:45.052Z,99.99
2016-11-04T01:50:26.659Z,99.99
2016-11-04T01:52:47.261Z,99.99
2016-11-04T01:53:28.938Z,99.99
2016-11-04T01:54:10.507Z,99.99
2016-11-04T01:54:52.083Z,99.96
2016-11-04T01:57:07.217Z,99.99
2016-11-04T01:57:49.043Z,99.99
2016-11-04T01:58:30.491Z,99.99
2016-11-04T02:00:19.921Z,99.99
2016-11-04T02:01:01.636Z,99.99
2016-11-04T02:01:43.297Z,99.99
2016-11-04T02:02:24.404Z,99.99
2016-11-04T02:03:04.914Z,99.99
2016-11-04T02:03:45.438Z,99.99
2016-11-04T02:04:25.970Z,99.99
2016-11-04T02:05:06.507Z,99.99
2016-11-04T02:05:47.027Z,99.99
2016-11-04T02:06:27.555Z,99.99
2016-11-04T02:07:08.088Z,99.99
2016-11-04T02:07:48.601Z,99.99
2016-11-04T02:08:29.141Z,99.99
2016-11-04T02:09:09.667Z,99.99
2016-11-04T02:09:50.184Z,99.99
2016-11-04T02:10:30.693Z,99.96
2016-11-04T02:11:11.226Z,99.99
2016-11-04T02:11:51.744Z,99.99
2016-11-04T02:12:32.265Z,99.99
2016-11-04T02:13:12.788Z,99.99
2016-11-04T02:13:53.313Z,99.99
2016-11-04T02:14:33.834Z,99.99
2016-11-04T02:15:14.352Z,99.99
2016-11-04T02:15:54.879Z,99.99
2016-11-04T02:16:35.411Z,99.99
2016-11-04T02:17:15.927Z,99.99
2016-11-04T02:17:56.474Z,99.99
2016-11-04T02:18:36.996Z,99.99
2016-11-04T02:19:17.531Z,99.99
2016-11-04T02:19:58.049Z,99.99
2016-11-04T02:20:38.575Z,99.99
2016-11-04T02:21:19.102Z,99.99
2016-11-04T02:21:59.609Z,99.99
2016-11-04T02:22:40.143Z,99.99
2016-11-04T02:23:20.665Z,99.99
2016-11-04T02:24:01.179Z,99.99
2016-11-04T02:24:41.699Z,99.99
2016-11-04T02:25:22.220Z,99.99
2016-11-04T02:26:02.732Z,99.99
2016-11-04T02:26:43.251Z,99.99
2016-11-04T02:27:23.757Z,99.99
2016-11-04T02:28:04.260Z,99.99
2016-11-04T02:28:44.778Z,99.99
2016-11-04T02:29:25.295Z,99.99
2016-11-04T02:30:05.812Z,99.99
2016-11-04T02:30:46.331Z,99.99
2016-11-04T02:31:26.846Z,99.99
2016-11-04T02:32:07.349Z,99.99
2016-11-04T02:32:47.875Z,99.99
2016-11-04T02:33:28.391Z,99.99
2016-11-04T02:34:08.910Z,99.99
2016-11-04T02:34:49.430Z,99.99
2016-11-04T02:35:29.959Z,99.99
2016-11-04T02:36:10.469Z,99.99
2016-11-04T02:36:50.995Z,99.99
2016-11-04T02:37:31.514Z,99.99
2016-11-04T02:38:12.044Z,99.99
2016-11-04T02:38:52.578Z,99.99
2016-11-04T02:39:33.065Z,99.99
2016-11-04T02:40:13.571Z,99.99
2016-11-04T02:40:54.084Z,99.99
2016-11-04T02:41:34.637Z,99.99
2016-11-04T02:42:15.176Z,99.99
2016-11-04T02:42:55.708Z,99.99
2016-11-04T02:43:36.235Z,99.99
2016-11-04T02:44:16.767Z,99.99
2016-11-04T02:44:57.291Z,99.99
2016-11-04T02:45:37.816Z,99.99
2016-11-04T02:46:18.332Z,99.99
2016-11-04T02:46:58.849Z,99.99
2016-11-04T02:47:39.374Z,99.99
2016-11-04T02:48:19.883Z,99.99
2016-11-04T02:49:00.419Z,99.99
2016-11-04T02:49:40.930Z,99.99
2016-11-04T02:50:21.461Z,99.99
2016-11-04T02:51:02.005Z,99.99
2016-11-04T02:51:42.525Z,99.99
2016-11-04T02:52:23.066Z,99.99
2016-11-04T02:53:03.596Z,99.99
2016-11-04T02:53:44.132Z,99.96
2016-11-04T02:54:24.683Z,99.99
2016-11-04T02:55:05.226Z,99.99
2016-11-04T02:55:45.758Z,99.99
2016-11-04T02:56:26.280Z,99.96
2016-11-04T02:57:06.808Z,99.99
2016-11-04T02:57:47.327Z,99.99
2016-11-04T02:58:27.864Z,99.99
2016-11-04T02:59:08.390Z,99.99
2016-11-04T02:59:48.901Z,99.99
2016-11-04T03:00:29.429Z,99.99
2016-11-04T03:01:09.947Z,99.99
2016-11-04T03:01:50.482Z,99.99
2016-11-04T03:02:31.003Z,99.99
2016-11-04T03:03:11.535Z,99.99
2016-11-04T03:03:52.056Z,99.99
2016-11-04T03:04:32.572Z,99.99
2016-11-04T03:05:13.106Z,99.99
2016-11-04T03:05:53.625Z,99.99
2016-11-04T03:06:34.146Z,99.99
2016-11-04T03:07:14.671Z,99.99
2016-11-04T03:07:55.207Z,99.99
2016-11-04T03:08:35.756Z,99.99
2016-11-04T03:09:16.269Z,99.99
2016-11-04T03:09:56.776Z,99.99
2016-11-04T03:10:37.307Z,99.99
2016-11-04T03:11:17.837Z,99.99
2016-11-04T03:11:58.372Z,99.99
2016-11-04T03:12:38.907Z,99.96
2016-11-04T03:13:19.430Z,99.99
2016-11-04T03:13:59.952Z,99.96
2016-11-04T03:14:40.477Z,99.96
2016-11-04T03:15:20.987Z,99.96
2016-11-04T03:16:01.526Z,99.99
2016-11-04T03:16:42.053Z,99.96
2016-11-04T03:17:22.576Z,99.99
2016-11-04T03:18:03.116Z,99.99
2016-11-04T03:18:43.637Z,99.96
2016-11-04T03:19:24.191Z,99.96
2016-11-04T03:20:04.689Z,99.96
2016-11-04T03:20:45.226Z,99.96
2016-11-04T03:21:25.769Z,99.87
2016-11-04T03:22:06.286Z,99.96
2016-11-04T03:22:46.793Z,99.99
2016-11-04T03:23:27.316Z,99.96
2016-11-04T03:24:07.837Z,99.96
2016-11-04T03:24:48.362Z,99.96
2016-11-04T03:25:28.901Z,99.96
2016-11-04T03:26:09.440Z,99.99
2016-11-04T03:26:49.961Z,99.99
2016-11-04T03:27:30.504Z,99.99
2016-11-04T03:28:11.035Z,99.99
2016-11-04T03:28:51.553Z,99.99
2016-11-04T03:29:32.078Z,99.99
2016-11-04T03:30:12.603Z,99.99
2016-11-04T03:30:53.124Z,99.99
2016-11-04T03:31:33.662Z,99.99
2016-11-04T03:32:14.197Z,99.99
2016-11-04T03:32:54.738Z,99.99
2016-11-04T03:33:35.244Z,99.99
2016-11-04T03:34:15.787Z,99.99
2016-11-04T03:34:56.323Z,99.99
2016-11-04T03:35:36.852Z,99.99
2016-11-04T03:36:17.352Z,99.99
2016-11-04T03:36:57.875Z,99.99
2016-11-04T03:37:38.399Z,99.99
2016-11-04T03:38:18.912Z,99.99
2016-11-04T03:38:59.450Z,99.99
2016-11-04T03:39:39.964Z,99.99
2016-11-04T03:40:20.494Z,99.99
2016-11-04T03:41:01.040Z,99.99
2016-11-04T03:41:41.560Z,99.99
2016-11-04T03:42:22.094Z,99.99
2016-11-04T03:43:02.640Z,99.99
2016-11-04T03:43:43.140Z,99.99
2016-11-04T03:44:23.667Z,99.99
2016-11-04T03:45:04.191Z,99.99
2016-11-04T03:45:44.716Z,99.99
2016-11-04T03:46:25.269Z,99.99
2016-11-04T03:47:05.768Z,99.99
2016-11-04T03:47:46.293Z,99.99
2016-11-04T03:48:26.809Z,99.99
2016-11-04T03:49:07.296Z,99.99
2016-11-04T03:49:47.856Z,99.99
2016-11-04T03:50:28.348Z,99.99
2016-11-04T03:51:08.861Z,99.99
2016-11-04T03:51:49.388Z,99.99
2016-11-04T03:52:29.904Z,99.96
2016-11-04T03:53:10.428Z,99.96
2016-11-04T03:53:50.938Z,99.96
2016-11-04T03:54:31.461Z,99.96
2016-11-04T03:55:11.976Z,99.99
2016-11-04T03:55:52.499Z,99.96
2016-11-04T03:56:33.017Z,99.99
2016-11-04T03:57:13.559Z,99.99
2016-11-04T03:57:54.094Z,99.96
2016-11-04T03:58:34.717Z,99.96
2016-11-04T03:59:15.345Z,99.96
2016-11-04T03:59:55.749Z,99.99
2016-11-04T04:00:36.276Z,99.99
2016-11-04T04:01:16.810Z,99.99
2016-11-04T04:01:57.352Z,99.99
2016-11-04T04:02:37.872Z,99.99
2016-11-04T04:03:18.415Z,99.99
2016-11-04T04:03:58.958Z,99.99
2016-11-04T04:04:39.500Z,99.99
2016-11-04T04:05:20.013Z,99.99
2016-11-04T04:06:00.538Z,99.99
2016-11-04T04:06:41.052Z,99.99
2016-11-04T04:07:21.670Z,99.99
2016-11-04T04:08:02.224Z,99.99
2016-11-04T04:08:42.735Z,99.99
2016-11-04T04:09:23.254Z,99.99
2016-11-04T04:10:03.782Z,99.99
2016-11-04T04:10:44.290Z,99.99
2016-11-04T04:11:24.813Z,99.96
2016-11-04T04:12:05.352Z,99.99
2016-11-04T04:12:45.856Z,99.99
2016-11-04T04:13:26.390Z,99.99
2016-11-04T04:14:06.937Z,99.99
2016-11-04T04:14:47.476Z,99.99
2016-11-04T04:15:28.019Z,99.99
2016-11-04T04:16:08.557Z,99.99
2016-11-04T04:16:49.075Z,99.99
2016-11-04T04:17:29.596Z,99.99
2016-11-04T04:18:10.132Z,99.99
2016-11-04T04:18:50.664Z,99.99
2016-11-04T04:19:31.205Z,99.99
2016-11-04T04:20:11.772Z,99.99
2016-11-04T04:20:52.303Z,99.99
2016-11-04T04:21:32.833Z,99.99
2016-11-04T04:22:13.391Z,99.99
2016-11-04T04:22:53.890Z,99.99
2016-11-04T04:23:34.425Z,99.99
2016-11-04T04:24:14.939Z,99.99
2016-11-04T04:24:55.475Z,99.99
2016-11-04T04:25:36.013Z,99.99
2016-11-04T04:26:16.539Z,99.91
2016-11-04T04:26:57.081Z,99.99
2016-11-04T04:27:37.614Z,99.99
2016-11-04T04:28:18.145Z,99.99
2016-11-04T04:28:59.627Z,99.99
2016-11-04T04:29:40.265Z,99.99
2016-11-04T04:30:20.740Z,99.99
2016-11-04T04:31:01.259Z,99.99
2016-11-04T04:31:41.788Z,99.91
2016-11-04T04:32:22.302Z,99.99
2016-11-04T04:33:02.824Z,99.99
2016-11-04T04:33:43.323Z,99.99
2016-11-04T04:34:23.850Z,99.99
2016-11-04T04:35:04.358Z,99.99
2016-11-04T04:35:44.878Z,99.99
2016-11-04T04:36:25.414Z,99.99
2016-11-04T04:37:06.000Z,99.99
2016-11-04T04:37:46.502Z,99.99
2016-11-04T04:38:27.045Z,99.99
2016-11-04T04:39:07.541Z,99.99
2016-11-04T04:39:48.085Z,99.99
2016-11-04T04:40:28.628Z,99.99
2016-11-04T04:41:09.125Z,99.99
2016-11-04T04:41:49.681Z,99.99
2016-11-04T04:42:30.181Z,99.99
2016-11-04T04:43:10.684Z,99.91
2016-11-04T04:43:51.202Z,99.99
2016-11-04T04:44:31.713Z,99.99
2016-11-04T04:45:12.247Z,99.99
2016-11-04T04:45:52.811Z,99.99
2016-11-04T04:46:33.302Z,99.99
2016-11-04T04:47:13.824Z,99.99
2016-11-04T04:47:54.371Z,99.99
2016-11-04T04:48:34.895Z,99.99
2016-11-04T04:49:15.443Z,99.99
2016-11-04T04:49:55.957Z,99.99
2016-11-04T04:50:36.493Z,99.99
2016-11-04T04:51:17.005Z,99.99
2016-11-04T04:51:57.515Z,99.99
2016-11-04T04:52:38.034Z,99.99
2016-11-04T04:53:18.559Z,99.99
2016-11-04T04:53:59.097Z,99.99
2016-11-04T04:54:39.614Z,99.99
2016-11-04T04:55:20.167Z,99.99
2016-11-04T04:56:00.697Z,99.99
2016-11-04T04:56:41.213Z,99.99
2016-11-04T04:57:21.718Z,99.99
2016-11-04T04:58:02.249Z,99.99
2016-11-04T04:58:42.765Z,99.99
2016-11-04T04:59:23.284Z,99.99
2016-11-04T05:00:03.796Z,99.99
2016-11-04T05:00:44.345Z,99.99
2016-11-04T05:01:24.852Z,99.99
2016-11-04T05:02:05.354Z,99.99
2016-11-04T05:04:24.680Z,99.99
2016-11-04T05:05:05.177Z,99.99
2016-11-04T05:05:46.515Z,99.99
2016-11-04T05:06:27.030Z,99.99
2016-11-04T05:07:07.555Z,99.99
2016-11-04T05:07:48.069Z,99.99
2016-11-04T05:08:28.566Z,99.99
2016-11-04T05:09:09.082Z,99.99
2016-11-04T05:09:49.696Z,99.99
2016-11-04T05:10:30.208Z,99.99
2016-11-04T05:11:10.743Z,99.99
2016-11-04T05:11:51.257Z,99.99
2016-11-04T05:12:31.768Z,99.99
2016-11-04T05:13:12.273Z,99.99
2016-11-04T05:13:52.795Z,99.99
2016-11-04T05:14:33.307Z,99.99
2016-11-04T05:15:13.811Z,99.99
2016-11-04T05:15:54.343Z,99.99
2016-11-04T05:16:34.841Z,99.99
2016-11-04T05:17:15.366Z,99.99
2016-11-04T05:17:55.888Z,99.99
2016-11-04T05:18:36.395Z,99.99
2016-11-04T05:19:16.915Z,99.99
2016-11-04T05:19:57.457Z,99.99
2016-11-04T05:20:37.952Z,99.99
2016-11-04T05:21:18.460Z,99.99
2016-11-04T05:21:58.959Z,99.99
2016-11-04T05:22:39.522Z,99.99
2016-11-04T05:23:20.039Z,99.99
2016-11-04T05:24:00.536Z,99.99
2016-11-04T05:24:41.054Z,99.99
2016-11-04T05:25:21.565Z,99.99
2016-11-04T05:26:02.123Z,99.99
2016-11-04T05:26:42.633Z,99.99
2016-11-04T05:27:23.176Z,99.99
2016-11-04T05:28:03.700Z,99.99
2016-11-04T05:28:44.204Z,99.99
2016-11-04T05:29:24.725Z,99.99
2016-11-04T05:30:05.228Z,99.99
2016-11-04T05:30:45.769Z,99.99
2016-11-04T05:31:26.300Z,99.99
2016-11-04T05:32:06.831Z,99.99
2016-11-04T05:32:47.371Z,99.99
2016-11-04T05:33:27.881Z,99.99
2016-11-04T05:34:08.395Z,99.99
2016-11-04T05:34:48.915Z,99.99
2016-11-04T05:35:29.424Z,99.99
2016-11-04T05:36:09.955Z,99.99
2016-11-04T05:36:50.491Z,99.99
2016-11-04T05:37:30.995Z,99.99
2016-11-04T05:38:11.526Z,99.99
2016-11-04T05:38:52.063Z,99.99
2016-11-04T05:39:32.592Z,99.99
2016-11-04T05:40:13.109Z,99.99
2016-11-04T05:40:53.623Z,99.99
2016-11-04T05:41:34.156Z,99.99
2016-11-04T05:42:14.673Z,99.99
2016-11-04T05:42:55.183Z,99.99
2016-11-04T05:43:35.704Z,99.99
2016-11-04T05:44:16.220Z,99.99
2016-11-04T05:44:56.721Z,99.99
2016-11-04T05:45:37.222Z,99.99
2016-11-04T05:46:17.741Z,99.99
2016-11-04T05:46:58.253Z,99.99
2016-11-04T05:47:38.784Z,99.99
2016-11-04T05:48:19.318Z,99.99
2016-11-04T05:48:59.822Z,99.99
2016-11-04T05:49:40.338Z,99.99
2016-11-04T05:50:20.903Z,99.99
2016-11-04T05:51:01.791Z,99.99
2016-11-04T05:51:42.328Z,99.99
2016-11-04T05:52:22.833Z,99.99
2016-11-04T05:53:03.362Z,99.99
2016-11-04T05:53:43.880Z,99.99
2016-11-04T05:54:24.421Z,99.99
2016-11-04T05:55:04.940Z,99.99
2016-11-04T05:55:45.461Z,99.99
2016-11-04T05:56:26.066Z,99.99
2016-11-04T05:57:06.533Z,99.99
2016-11-04T05:57:47.047Z,99.99
2016-11-04T05:58:27.566Z,99.99
2016-11-04T05:59:08.093Z,99.99
2016-11-04T05:59:48.610Z,99.99
2016-11-04T06:00:29.134Z,99.99
2016-11-04T06:01:09.668Z,99.99
2016-11-04T06:01:50.234Z,99.99
2016-11-04T06:02:30.726Z,99.99
2016-11-04T06:03:11.238Z,99.99
2016-11-04T06:03:51.761Z,99.99
2016-11-04T06:04:32.290Z,99.99
2016-11-04T06:05:12.813Z,99.99
2016-11-04T06:05:53.345Z,99.99
2016-11-04T06:06:33.871Z,99.99
2016-11-04T06:07:14.444Z,99.99
2016-11-04T06:07:54.949Z,99.99
2016-11-04T06:08:35.471Z,99.99
2016-11-04T06:09:15.989Z,99.99
2016-11-04T06:09:56.500Z,99.99
2016-11-04T06:10:37.039Z,99.99
2016-11-04T06:11:17.570Z,99.99
2016-11-04T06:11:58.092Z,99.99
2016-11-04T06:12:38.616Z,99.99
2016-11-04T06:13:19.139Z,99.99
2016-11-04T06:13:59.675Z,99.99
2016-11-04T06:14:40.194Z,99.99
2016-11-04T06:15:20.702Z,99.99
2016-11-04T06:16:01.228Z,99.99
2016-11-04T06:16:41.737Z,99.99
2016-11-04T06:17:22.263Z,99.99
2016-11-04T06:18:02.792Z,99.99
2016-11-04T06:18:43.330Z,99.99
2016-11-04T06:19:23.849Z,99.99
2016-11-04T06:20:04.373Z,99.99
2016-11-04T06:20:44.893Z,99.99
2016-11-04T06:21:25.409Z,99.99
2016-11-04T06:22:05.938Z,99.99
2016-11-04T06:22:46.464Z,99.99
2016-11-04T06:23:26.976Z,99.99
2016-11-04T06:24:07.518Z,99.99
2016-11-04T06:24:48.048Z,99.99
2016-11-04T06:25:28.544Z,99.99
2016-11-04T06:26:09.072Z,99.99
2016-11-04T06:26:49.575Z,99.99
2016-11-04T06:27:30.114Z,99.99
2016-11-04T06:28:10.648Z,99.99
2016-11-04T06:28:51.182Z,99.99
2016-11-04T06:29:31.700Z,99.99
2016-11-04T06:30:12.238Z,99.99
2016-11-04T06:30:52.755Z,99.99
2016-11-04T06:31:33.284Z,99.99
2016-11-04T06:32:13.777Z,99.99
2016-11-04T06:32:54.286Z,99.99
2016-11-04T06:33:34.776Z,99.99
2016-11-04T06:34:15.295Z,99.99
2016-11-04T06:34:55.832Z,99.99
2016-11-04T06:35:36.363Z,99.99
2016-11-04T06:36:16.876Z,99.99
2016-11-04T06:36:57.403Z,99.99
2016-11-04T06:37:37.935Z,99.99
2016-11-04T06:38:18.453Z,99.99
2016-11-04T06:38:58.983Z,99.99
2016-11-04T06:39:39.497Z,99.99
2016-11-04T06:40:20.006Z,99.99
2016-11-04T06:41:00.515Z,99.99
2016-11-04T06:41:41.029Z,99.99
2016-11-04T06:42:21.558Z,99.99
2016-11-04T06:43:02.076Z,99.99
2016-11-04T06:43:42.625Z,99.99
2016-11-04T06:44:23.139Z,99.99
2016-11-04T06:45:03.662Z,99.99
2016-11-04T06:45:44.182Z,99.99
2016-11-04T06:46:24.698Z,99.99
2016-11-04T06:47:05.242Z,99.99
2016-11-04T06:47:45.875Z,99.99
2016-11-04T06:48:26.355Z,99.99
2016-11-04T06:49:06.887Z,99.99
2016-11-04T06:49:47.387Z,99.99
2016-11-04T06:50:27.907Z,99.99
2016-11-04T06:51:08.446Z,99.99
2016-11-04T06:51:48.975Z,99.99
2016-11-04T06:52:29.486Z,99.99
2016-11-04T06:53:10.005Z,99.99
2016-11-04T06:53:50.542Z,99.99
2016-11-04T06:54:31.068Z,99.99
2016-11-04T06:55:11.591Z,99.99
2016-11-04T06:55:52.103Z,99.99
2016-11-04T06:56:32.637Z,99.99
2016-11-04T06:57:13.161Z,99.99
2016-11-04T06:57:53.669Z,99.99
2016-11-04T06:58:34.220Z,99.99
2016-11-04T06:59:14.724Z,99.99
2016-11-04T06:59:55.251Z,99.99
2016-11-04T07:00:35.775Z,99.99
2016-11-04T07:01:16.306Z,99.99
2016-11-04T07:01:56.838Z,99.99
2016-11-04T07:02:37.351Z,99.99
2016-11-04T07:03:17.840Z,99.99
2016-11-04T07:03:58.361Z,99.99
2016-11-04T07:04:38.885Z,99.99
2016-11-04T07:05:19.408Z,99.99
2016-11-04T07:05:59.931Z,99.99
2016-11-04T07:06:40.451Z,99.99
2016-11-04T07:07:20.987Z,99.99
2016-11-04T07:08:01.505Z,99.99
2016-11-04T07:08:42.019Z,99.99
2016-11-04T07:09:22.565Z,99.99
2016-11-04T07:10:03.107Z,99.99
2016-11-04T07:10:43.612Z,99.99
2016-11-04T07:11:24.131Z,99.99
2016-11-04T07:12:04.666Z,99.99
2016-11-04T07:12:45.178Z,99.99
2016-11-04T07:13:25.708Z,99.99
2016-11-04T07:14:06.229Z,99.99
2016-11-04T07:14:46.750Z,99.99
2016-11-04T07:15:27.284Z,99.99
2016-11-04T07:16:08.106Z,99.99
2016-11-04T07:16:48.346Z,99.99
2016-11-04T07:17:28.862Z,99.99
2016-11-04T07:18:09.383Z,99.99
2016-11-04T07:18:49.889Z,99.99
2016-11-04T07:19:30.406Z,99.99
2016-11-04T07:20:10.931Z,99.99
2016-11-04T07:20:51.472Z,99.99
2016-11-04T07:21:32.000Z,99.99
2016-11-04T07:22:12.535Z,99.99
2016-11-04T07:22:53.035Z,99.99
2016-11-04T07:23:33.563Z,99.99
2016-11-04T07:24:14.136Z,99.99
2016-11-04T07:24:54.648Z,99.99
2016-11-04T07:25:35.184Z,99.99
2016-11-04T07:26:15.698Z,99.99
2016-11-04T07:26:56.223Z,99.99
2016-11-04T07:27:36.756Z,99.99
2016-11-04T07:28:17.328Z,99.99
2016-11-04T07:28:57.858Z,99.99
2016-11-04T07:29:38.391Z,99.99
2016-11-04T07:30:18.927Z,99.99
2016-11-04T07:30:59.463Z,99.99
2016-11-04T07:31:39.987Z,99.99
2016-11-04T07:32:20.519Z,99.99
2016-11-04T07:33:01.057Z,99.99
2016-11-04T07:33:41.584Z,99.99
2016-11-04T07:34:22.101Z,99.99
2016-11-04T07:35:02.610Z,99.99
2016-11-04T07:35:43.135Z,99.96
2016-11-04T07:36:23.645Z,99.99
2016-11-04T07:37:04.178Z,99.99
2016-11-04T07:37:44.699Z,99.99
2016-11-04T07:38:25.220Z,99.99
2016-11-04T07:39:05.744Z,99.99
2016-11-04T07:39:46.266Z,99.99
2016-11-04T07:40:26.806Z,99.99
2016-11-04T07:41:07.343Z,99.99
2016-11-04T07:41:47.849Z,99.99
2016-11-04T07:42:28.367Z,99.99
2016-11-04T07:43:08.889Z,99.99
2016-11-04T07:43:49.406Z,99.99
2016-11-04T07:44:29.929Z,99.99
2016-11-04T07:45:10.467Z,99.99
2016-11-04T07:45:51.020Z,99.99
2016-11-04T07:46:31.511Z,99.99
2016-11-04T07:47:12.020Z,99.99
2016-11-04T07:47:52.551Z,99.99
2016-11-04T07:48:33.099Z,99.99
2016-11-04T07:49:13.617Z,99.99
2016-11-04T07:49:54.144Z,99.99
2016-11-04T07:50:34.676Z,99.99
2016-11-04T07:51:15.214Z,99.99
2016-11-04T07:51:55.758Z,99.99
2016-11-04T07:52:36.266Z,99.96
2016-11-04T07:53:16.798Z,99.99
2016-11-04T07:53:57.307Z,99.99
2016-11-04T07:54:37.841Z,99.99
2016-11-04T07:55:18.369Z,99.96
2016-11-04T07:55:58.898Z,99.96
2016-11-04T07:56:39.417Z,99.99
2016-11-04T07:57:19.945Z,99.77
2016-11-04T07:58:00.467Z,99.99
2016-11-04T07:58:40.975Z,99.99
2016-11-04T07:59:21.496Z,99.99
2016-11-04T08:00:02.010Z,99.99
2016-11-04T08:00:42.521Z,99.99
2016-11-04T08:01:23.073Z,99.99
2016-11-04T08:02:03.571Z,99.68
2016-11-04T08:02:44.071Z,99.99
2016-11-04T08:03:24.611Z,99.99
2016-11-04T08:04:05.124Z,99.99
2016-11-04T08:04:45.637Z,99.99
2016-11-04T08:05:26.198Z,99.96
2016-11-04T08:06:06.705Z,99.99
2016-11-04T08:06:47.223Z,99.77
2016-11-04T08:07:27.735Z,99.99
2016-11-04T08:08:08.261Z,99.96
2016-11-04T08:08:48.768Z,99.99
2016-11-04T08:09:29.275Z,99.99
2016-11-04T08:10:09.810Z,99.99
2016-11-04T08:10:50.366Z,99.96
2016-11-04T08:11:30.855Z,99.99
2016-11-04T08:12:11.383Z,99.99
2016-11-04T08:12:51.903Z,99.99
2016-11-04T08:13:32.436Z,99.99
2016-11-04T08:14:12.950Z,99.99
2016-11-04T08:14:53.465Z,99.99
2016-11-04T08:15:34.002Z,99.99
2016-11-04T08:16:14.511Z,99.99
2016-11-04T08:16:55.017Z,99.99
2016-11-04T08:17:35.530Z,99.99
2016-11-04T08:18:16.071Z,99.96
2016-11-04T08:18:56.577Z,99.99
2016-11-04T08:19:37.118Z,99.96
2016-11-04T08:20:17.654Z,99.99
2016-11-04T08:20:58.209Z,99.99
2016-11-04T08:21:38.733Z,99.99
2016-11-04T08:22:19.276Z,99.99
2016-11-04T08:22:59.807Z,99.99
2016-11-04T08:23:40.310Z,99.99
2016-11-04T08:24:20.826Z,99.99
2016-11-04T08:25:01.329Z,99.99
2016-11-04T08:25:41.841Z,99.99
2016-11-04T08:26:22.376Z,99.99
2016-11-04T08:27:02.879Z,99.99
2016-11-04T08:27:43.406Z,99.99
2016-11-04T08:28:23.928Z,99.99
2016-11-04T08:29:04.474Z,99.99
2016-11-04T08:29:44.958Z,99.99
2016-11-04T08:30:25.475Z,99.99
2016-11-04T08:31:05.986Z,99.99
2016-11-04T08:31:46.508Z,99.99
2016-11-04T08:32:27.026Z,99.99
2016-11-04T08:33:07.530Z,99.99
2016-11-04T08:33:48.058Z,99.99
2016-11-04T08:34:28.576Z,99.99
2016-11-04T08:35:09.121Z,99.91
2016-11-04T08:35:49.608Z,99.99
2016-11-04T08:36:30.184Z,99.91
2016-11-04T08:37:10.712Z,99.99
2016-11-04T08:37:51.239Z,99.82
2016-11-04T08:38:31.766Z,99.82
2016-11-04T08:39:12.284Z,99.82
2016-11-04T08:39:52.787Z,99.99
2016-11-04T08:40:33.307Z,99.82
2016-11-04T08:41:13.831Z,99.82
2016-11-04T08:41:54.373Z,99.99
2016-11-04T08:42:34.909Z,99.35
2016-11-04T08:43:15.417Z,99.26
2016-11-04T08:43:55.936Z,99.26
2016-11-04T08:44:36.463Z,99.26
2016-11-04T08:45:16.981Z,99.54
2016-11-04T08:45:57.506Z,99.44
2016-11-04T08:46:38.019Z,99.26
2016-11-04T08:47:18.543Z,99.54
2016-11-04T08:47:59.051Z,99.54
2016-11-04T08:48:39.592Z,99.44
2016-11-04T08:49:20.130Z,99.63
2016-11-04T08:50:00.651Z,99.35
2016-11-04T08:50:41.181Z,99.54
2016-11-04T08:51:21.716Z,99.16
2016-11-04T08:52:02.249Z,99.44
2016-11-04T08:52:42.753Z,99.44
2016-11-04T08:53:23.277Z,99.63
2016-11-04T08:54:03.787Z,99.06
2016-11-04T08:54:44.315Z,98.49
2016-11-04T08:55:24.853Z,98.97
2016-11-04T08:56:05.372Z,99.16
2016-11-04T08:56:45.897Z,99.63
2016-11-04T08:57:26.433Z,98.97
2016-11-04T08:58:06.946Z,98.97
2016-11-04T08:58:47.465Z,98.87
2016-11-04T08:59:27.960Z,99.63
2016-11-04T09:00:08.495Z,99.26
2016-11-04T09:00:49.036Z,99.06
2016-11-04T09:01:29.574Z,99.16
2016-11-04T09:02:10.126Z,98.97
2016-11-04T09:02:50.647Z,98.87
2016-11-04T09:03:31.160Z,98.4
2016-11-04T09:04:11.679Z,98.21
2016-11-04T09:04:52.206Z,98.4
2016-11-04T09:05:32.744Z,98.4
2016-11-04T09:06:13.278Z,98.4
2016-11-04T09:06:53.793Z,98.4
2016-11-04T09:07:34.318Z,98.4
2016-11-04T09:08:14.821Z,98.21
2016-11-04T09:08:55.362Z,98.78
2016-11-04T09:09:35.876Z,98.78
2016-11-04T09:10:16.401Z,98.21
2016-11-04T09:10:56.928Z,98.4
2016-11-04T09:11:37.453Z,98.64
2016-11-04T09:12:17.954Z,98.16
2016-11-04T09:12:58.459Z,98.16
2016-11-04T09:13:38.989Z,98.83
2016-11-04T09:14:19.508Z,98.35
2016-11-04T09:15:00.026Z,98.64
2016-11-04T09:15:40.552Z,98.45
2016-11-04T09:16:21.060Z,98.45
2016-11-04T09:17:01.578Z,98.35
2016-11-04T09:17:42.115Z,97.97
2016-11-04T09:18:22.651Z,98.54
2016-11-04T09:19:03.160Z,98.35
2016-11-04T09:19:43.692Z,98.07
2016-11-04T09:20:24.215Z,98.07
2016-11-04T09:21:04.744Z,98.07